createdAt,value
2022-08-03T00:00:00.305Z,6.4
2022-08-03T00:01:00.388Z,6.4
2022-08-03T00:02:00.232Z,6.4
2022-08-03T00:03:00.332Z,6.6
2022-08-03T00:04:00.438Z,6.6
2022-08-03T00:05:00.277Z,6.6
2022-08-03T00:06:04.060Z,6.6
2022-08-03T00:07:00.252Z,6.6
2022-08-03T00:08:00.223Z,6.4
2022-08-03T00:09:00.369Z,6.4
2022-08-03T00:10:00.499Z,6.4
2022-08-03T00:11:00.542Z,6.4
2022-08-03T00:12:00.309Z,6.4
2022-08-03T00:13:00.307Z,7.9
2022-08-03T00:14:00.293Z,7.9
2022-08-03T00:15:00.257Z,7.9
2022-08-03T00:16:00.381Z,7.9
2022-08-03T00:17:00.327Z,7.9
2022-08-03T00:18:00.297Z,7.9
2022-08-03T00:19:01.072Z,7.9
2022-08-03T00:20:00.262Z,7.9
2022-08-03T00:21:00.725Z,7.9
2022-08-03T00:22:00.295Z,7.9
2022-08-03T00:23:00.346Z,6.6
2022-08-03T00:24:00.352Z,6.6
2022-08-03T00:25:00.505Z,6.6
2022-08-03T00:26:00.698Z,6.6
2022-08-03T00:27:00.283Z,6.6
2022-08-03T00:28:01.609Z,7.4
2022-08-03T00:29:00.289Z,7.4
2022-08-03T00:30:00.664Z,7.4
2022-08-03T00:31:00.257Z,7.4
2022-08-03T00:32:00.681Z,7.4
2022-08-03T00:33:00.776Z,7.4
2022-08-03T00:34:03.525Z,7.4
2022-08-03T00:35:00.417Z,7.4
2022-08-03T00:36:00.290Z,7.4
2022-08-03T00:37:00.270Z,7.4
2022-08-03T00:38:00.428Z,6.7
2022-08-03T00:39:00.301Z,6.7
2022-08-03T00:40:00.445Z,6.7
2022-08-03T00:41:00.277Z,6.7
2022-08-03T00:42:02.649Z,6.7
2022-08-03T00:43:02.906Z,7.5
2022-08-03T00:44:00.232Z,7.5
2022-08-03T00:45:00.307Z,7.5
2022-08-03T00:46:00.257Z,7.5
2022-08-03T00:47:00.317Z,7.5
2022-08-03T00:48:01.275Z,9.3
2022-08-03T00:49:01.156Z,9.3
2022-08-03T00:50:00.224Z,9.3
2022-08-03T00:51:00.808Z,9.3
2022-08-03T00:52:01.014Z,9.3
2022-08-03T00:53:02.011Z,6.9
2022-08-03T00:54:00.324Z,6.9
2022-08-03T00:55:01.577Z,6.9
2022-08-03T00:56:00.327Z,6.9
2022-08-03T00:57:00.781Z,6.9
2022-08-03T00:58:01.734Z,8.0
2022-08-03T00:59:01.216Z,8.0
2022-08-03T01:00:00.438Z,8.0
2022-08-03T01:01:00.396Z,8.0
2022-08-03T01:02:00.394Z,8.0
2022-08-03T01:03:00.944Z,6.7
2022-08-03T01:04:00.262Z,6.7
2022-08-03T01:05:00.302Z,6.7
2022-08-03T01:06:11.400Z,6.7
2022-08-03T01:07:10.797Z,6.7
2022-08-03T01:08:04.792Z,7.4
2022-08-03T01:09:14.299Z,7.4
2022-08-03T01:10:08.949Z,7.4
2022-08-03T01:11:16.485Z,7.4
2022-08-03T01:12:09.817Z,7.4
2022-08-03T01:13:59.434Z,7.9
2022-08-03T01:14:19.195Z,7.9
2022-08-03T01:15:20.123Z,7.9
2022-08-03T01:16:11.234Z,7.9
2022-08-03T01:17:10.907Z,7.2
2022-08-03T01:18:16.120Z,7.2
2022-08-03T01:19:10.215Z,7.2
2022-08-03T01:20:00.239Z,7.2
2022-08-03T01:21:05.528Z,7.2
2022-08-03T01:22:20.154Z,7.0
2022-08-03T01:23:20.138Z,7.0
2022-08-03T01:24:18.704Z,7.0
2022-08-03T01:25:17.649Z,7.0
2022-08-03T01:26:17.548Z,7.0
2022-08-03T01:27:20.126Z,9.0
2022-08-03T01:28:10.169Z,9.0
2022-08-03T01:29:17.846Z,9.0
2022-08-03T01:30:09.101Z,9.0
2022-08-03T01:31:05.817Z,9.0
2022-08-03T01:32:58.669Z,9.0
2022-08-03T01:33:05.251Z,7.4
2022-08-03T01:34:04.374Z,7.4
2022-08-03T01:35:05.171Z,7.4
2022-08-03T01:36:03.099Z,7.4
2022-08-03T01:37:04.749Z,7.4
2022-08-03T01:38:04.668Z,8.4
2022-08-03T01:39:05.264Z,8.4
2022-08-03T01:40:02.094Z,8.4
2022-08-03T01:41:06.315Z,8.4
2022-08-03T01:42:05.075Z,8.4
2022-08-03T01:43:03.277Z,7.8
2022-08-03T01:44:28.606Z,7.8
2022-08-03T01:45:01.593Z,7.8
2022-08-03T01:46:02.049Z,7.8
2022-08-03T01:47:01.789Z,7.8
2022-08-03T01:48:01.692Z,8.8
2022-08-03T01:49:09.195Z,8.8
2022-08-03T01:50:02.527Z,8.8
2022-08-03T01:51:00.786Z,8.8
2022-08-03T01:52:05.069Z,8.8
2022-08-03T01:53:01.272Z,8.4
2022-08-03T01:54:00.744Z,8.4
2022-08-03T01:55:02.720Z,8.4
2022-08-03T01:56:02.571Z,8.4
2022-08-03T01:57:01.790Z,8.4
2022-08-03T01:58:05.799Z,7.5
2022-08-03T01:59:01.598Z,7.5
2022-08-03T02:00:00.843Z,7.5
2022-08-03T02:01:02.213Z,7.5
2022-08-03T02:02:16.023Z,7.5
2022-08-03T02:03:03.263Z,8.3
2022-08-03T02:04:02.511Z,8.3
2022-08-03T02:05:03.610Z,8.3
2022-08-03T02:06:55.618Z,8.3
2022-08-03T02:07:03.307Z,8.3
2022-08-03T02:08:03.413Z,7.8
2022-08-03T02:09:01.863Z,7.8
2022-08-03T02:10:02.742Z,7.8
2022-08-03T02:11:01.292Z,7.8
2022-08-03T02:12:00.614Z,7.8
2022-08-03T02:13:01.210Z,8.0
2022-08-03T02:14:04.101Z,8.0
2022-08-03T02:15:01.673Z,8.0
2022-08-03T02:16:01.886Z,8.0
2022-08-03T02:17:00.853Z,8.0
2022-08-03T02:18:03.876Z,11.6
2022-08-03T02:19:03.747Z,11.6
2022-08-03T02:20:01.665Z,11.6
2022-08-03T02:21:01.758Z,11.6
2022-08-03T02:22:01.901Z,11.6
2022-08-03T02:23:00.287Z,9.9
2022-08-03T02:24:00.699Z,9.9
2022-08-03T02:25:00.696Z,9.9
2022-08-03T02:26:03.649Z,9.9
2022-08-03T02:27:02.281Z,9.9
2022-08-03T02:28:10.607Z,9.2
2022-08-03T02:29:04.581Z,9.2
2022-08-03T02:30:04.578Z,9.2
2022-08-03T02:31:04.337Z,9.2
2022-08-03T02:32:02.087Z,9.2
2022-08-03T02:33:01.672Z,10.6
2022-08-03T02:34:05.458Z,10.6
2022-08-03T02:35:02.554Z,10.6
2022-08-03T02:36:02.134Z,10.6
2022-08-03T02:37:02.517Z,10.6
2022-08-03T02:38:03.577Z,9.0
2022-08-03T02:39:00.824Z,9.0
2022-08-03T02:40:04.067Z,9.0
2022-08-03T02:41:06.104Z,9.0
2022-08-03T02:42:00.383Z,9.0
2022-08-03T02:43:06.409Z,10.9
2022-08-03T02:44:07.134Z,10.9
2022-08-03T02:45:03.990Z,10.9
2022-08-03T02:46:00.573Z,10.9
2022-08-03T02:47:03.983Z,10.9
2022-08-03T02:48:04.289Z,11.7
2022-08-03T02:49:40.729Z,11.7
2022-08-03T02:50:02.478Z,11.7
2022-08-03T02:51:03.224Z,11.7
2022-08-03T02:52:01.761Z,11.7
2022-08-03T02:53:02.110Z,12.6
2022-08-03T02:54:03.090Z,12.6
2022-08-03T02:55:02.483Z,12.6
2022-08-03T02:56:02.377Z,12.6
2022-08-03T02:57:01.567Z,12.6
2022-08-03T02:58:02.196Z,14.0
2022-08-03T02:59:00.693Z,14.0
2022-08-03T03:00:00.866Z,14.0
2022-08-03T03:01:01.063Z,14.0
2022-08-03T03:02:01.221Z,14.0
2022-08-03T03:03:02.214Z,10.3
2022-08-03T03:04:01.109Z,10.3
2022-08-03T03:05:53.052Z,10.3
2022-08-03T03:06:01.292Z,10.3
2022-08-03T03:07:01.882Z,10.3
2022-08-03T03:08:00.844Z,10.3
2022-08-03T03:09:00.910Z,10.3
2022-08-03T03:10:02.481Z,10.3
2022-08-03T03:11:00.809Z,10.3
2022-08-03T03:12:01.965Z,10.3
2022-08-03T03:13:01.379Z,11.1
2022-08-03T03:14:01.575Z,11.1
2022-08-03T03:15:00.332Z,11.1
2022-08-03T03:16:02.600Z,11.1
2022-08-03T03:17:01.382Z,11.1
2022-08-03T03:18:00.720Z,9.5
2022-08-03T03:19:01.071Z,9.5
2022-08-03T03:20:01.494Z,9.5
2022-08-03T03:21:02.265Z,9.5
2022-08-03T03:22:02.533Z,9.5
2022-08-03T03:23:01.329Z,8.3
2022-08-03T03:24:00.995Z,8.3
2022-08-03T03:25:01.155Z,8.3
2022-08-03T03:26:00.917Z,8.3
2022-08-03T03:27:00.788Z,8.3
2022-08-03T03:28:02.107Z,9.7
2022-08-03T03:29:01.398Z,9.7
2022-08-03T03:30:01.394Z,9.7
2022-08-03T03:31:00.327Z,9.7
2022-08-03T03:32:01.312Z,9.7
2022-08-03T03:33:00.567Z,9.3
2022-08-03T03:34:00.565Z,9.3
2022-08-03T03:35:00.843Z,9.3
2022-08-03T03:36:00.431Z,9.3
2022-08-03T03:37:00.665Z,9.3
2022-08-03T03:38:00.243Z,10.1
2022-08-03T03:39:00.314Z,10.1
2022-08-03T03:40:00.435Z,10.1
2022-08-03T03:41:00.762Z,10.1
2022-08-03T03:42:00.971Z,10.1
2022-08-03T03:43:00.482Z,10.7
2022-08-03T03:44:00.376Z,10.7
2022-08-03T03:45:06.524Z,10.7
2022-08-03T03:46:00.343Z,10.7
2022-08-03T03:47:00.380Z,10.7
2022-08-03T03:48:00.777Z,10.5
2022-08-03T03:49:00.427Z,10.5
2022-08-03T03:50:01.235Z,10.5
2022-08-03T03:51:01.225Z,10.5
2022-08-03T03:52:00.234Z,10.5
2022-08-03T03:53:01.199Z,10.2
2022-08-03T03:54:02.976Z,10.2
2022-08-03T03:55:01.176Z,10.2
2022-08-03T03:56:02.451Z,10.2
2022-08-03T03:57:00.358Z,10.2
2022-08-03T03:58:00.253Z,10.1
2022-08-03T03:59:00.313Z,10.1
2022-08-03T04:00:00.632Z,10.1
2022-08-03T04:01:00.373Z,10.1
2022-08-03T04:02:00.310Z,10.1
2022-08-03T04:03:00.271Z,9.4
2022-08-03T04:04:00.247Z,9.4
2022-08-03T04:05:00.325Z,9.4
2022-08-03T04:06:00.311Z,9.4
2022-08-03T04:07:00.264Z,9.4
2022-08-03T04:08:05.214Z,10.3
2022-08-03T04:09:00.677Z,10.3
2022-08-03T04:10:08.807Z,10.3
2022-08-03T04:11:20.136Z,10.3
2022-08-03T04:12:01.053Z,10.3
2022-08-03T04:13:03.399Z,12.1
2022-08-03T04:14:09.669Z,12.1
2022-08-03T04:15:02.434Z,12.1
2022-08-03T04:16:02.051Z,12.1
2022-08-03T04:17:03.121Z,10.6
2022-08-03T04:18:02.348Z,10.6
2022-08-03T04:19:03.611Z,10.6
2022-08-03T04:20:02.295Z,10.6
2022-08-03T04:21:02.696Z,10.6
2022-08-03T04:22:04.685Z,10.5
2022-08-03T04:23:01.673Z,10.5
2022-08-03T04:24:02.944Z,10.5
2022-08-03T04:25:06.109Z,10.5
2022-08-03T04:26:02.394Z,10.5
2022-08-03T04:27:03.828Z,10.0
2022-08-03T04:28:30.046Z,10.0
2022-08-03T04:29:01.462Z,10.0
2022-08-03T04:30:02.758Z,10.0
2022-08-03T04:31:02.776Z,10.0
2022-08-03T04:32:00.372Z,10.0
2022-08-03T04:33:01.580Z,10.3
2022-08-03T04:34:01.175Z,10.3
2022-08-03T04:35:00.354Z,10.3
2022-08-03T04:36:03.996Z,10.3
2022-08-03T04:37:04.476Z,12.4
2022-08-03T04:38:02.339Z,12.4
2022-08-03T04:39:06.321Z,12.4
2022-08-03T04:40:04.252Z,12.4
2022-08-03T04:41:00.783Z,12.4
2022-08-03T04:42:16.925Z,11.7
2022-08-03T04:43:01.206Z,11.7
2022-08-03T04:44:02.994Z,11.7
2022-08-03T04:45:02.460Z,11.7
2022-08-03T04:46:01.680Z,11.7
2022-08-03T04:47:00.861Z,11.7
2022-08-03T04:48:02.944Z,13.2
2022-08-03T04:49:01.261Z,13.2
2022-08-03T04:50:02.456Z,13.2
2022-08-03T04:51:00.535Z,13.2
2022-08-03T04:52:00.450Z,13.2
2022-08-03T04:53:00.439Z,12.3
2022-08-03T04:54:00.421Z,12.3
2022-08-03T04:55:00.386Z,12.3
2022-08-03T04:56:04.920Z,12.3
2022-08-03T04:57:00.207Z,12.3
2022-08-03T04:58:01.757Z,14.7
2022-08-03T04:59:00.226Z,14.7
2022-08-03T05:00:03.344Z,14.7
2022-08-03T05:01:00.362Z,14.7
2022-08-03T05:02:00.297Z,14.7
2022-08-03T05:03:00.294Z,12.9
2022-08-03T05:04:00.260Z,12.9
2022-08-03T05:05:00.308Z,12.9
2022-08-03T05:06:01.828Z,12.9
2022-08-03T05:07:00.445Z,12.9
2022-08-03T05:08:00.646Z,11.1
2022-08-03T05:09:00.260Z,11.1
2022-08-03T05:10:03.139Z,11.1
2022-08-03T05:11:00.331Z,11.1
2022-08-03T05:12:00.380Z,11.1
2022-08-03T05:13:00.219Z,10.9
2022-08-03T05:14:00.214Z,10.9
2022-08-03T05:15:00.694Z,10.9
2022-08-03T05:16:00.277Z,10.9
2022-08-03T05:17:00.302Z,11.4
2022-08-03T05:18:00.249Z,11.4
2022-08-03T05:19:00.217Z,11.4
2022-08-03T05:20:00.217Z,11.4
2022-08-03T05:21:00.716Z,11.4
2022-08-03T05:22:00.341Z,10.6
2022-08-03T05:23:00.325Z,10.6
2022-08-03T05:24:00.276Z,10.6
2022-08-03T05:25:00.872Z,10.6
2022-08-03T05:26:00.282Z,10.6
2022-08-03T05:27:00.250Z,9.3
2022-08-03T05:28:00.231Z,9.3
2022-08-03T05:29:00.279Z,9.3
2022-08-03T05:30:30.733Z,9.3
2022-08-03T05:31:00.280Z,9.3
2022-08-03T05:32:02.649Z,10.9
2022-08-03T05:33:02.008Z,10.9
2022-08-03T05:34:00.361Z,10.9
2022-08-03T05:35:00.286Z,10.9
2022-08-03T05:36:03.380Z,10.9
2022-08-03T05:37:00.214Z,9.6
2022-08-03T05:38:01.987Z,9.6
2022-08-03T05:39:02.816Z,9.6
2022-08-03T05:40:00.430Z,9.6
2022-08-03T05:41:21.061Z,9.6
2022-08-03T05:42:00.735Z,10.4
2022-08-03T05:43:00.563Z,10.4
2022-08-03T05:44:00.229Z,10.4
2022-08-03T05:45:03.567Z,10.4
2022-08-03T05:46:11.558Z,10.4
2022-08-03T05:47:00.218Z,10.4
2022-08-03T05:48:00.221Z,9.5
2022-08-03T05:49:00.345Z,9.5
2022-08-03T05:50:00.244Z,9.5
2022-08-03T05:51:00.282Z,9.5
2022-08-03T05:52:13.790Z,9.5
2022-08-03T05:53:00.389Z,10.2
2022-08-03T05:54:00.218Z,10.2
2022-08-03T05:55:00.324Z,10.2
2022-08-03T05:56:13.297Z,10.2
2022-08-03T05:57:00.305Z,10.2
2022-08-03T05:58:00.883Z,9.1
2022-08-03T05:59:16.350Z,9.1
2022-08-03T06:00:04.461Z,9.1
2022-08-03T06:01:00.253Z,9.1
2022-08-03T06:02:00.347Z,9.1
2022-08-03T06:03:00.235Z,8.9
2022-08-03T06:04:00.265Z,8.9
2022-08-03T06:05:00.460Z,8.9
2022-08-03T06:06:00.767Z,8.9
2022-08-03T06:07:00.223Z,8.9
2022-08-03T06:08:00.319Z,7.7
2022-08-03T06:09:00.219Z,7.7
2022-08-03T06:10:36.427Z,7.7
2022-08-03T06:11:00.237Z,7.7
2022-08-03T06:12:00.237Z,7.7
2022-08-03T06:13:00.221Z,7.5
2022-08-03T06:14:00.301Z,7.5
2022-08-03T06:15:00.850Z,7.5
2022-08-03T06:16:00.903Z,7.5
2022-08-03T06:17:00.229Z,7.5
2022-08-03T06:18:02.253Z,10.2
2022-08-03T06:19:00.739Z,10.2
2022-08-03T06:20:00.273Z,10.2
2022-08-03T06:21:14.860Z,10.2
2022-08-03T06:22:00.325Z,10.2
2022-08-03T06:23:01.225Z,9.6
2022-08-03T06:24:00.237Z,9.6
2022-08-03T06:25:05.703Z,9.6
2022-08-03T06:26:01.480Z,9.6
2022-08-03T06:27:00.314Z,9.6
2022-08-03T06:28:00.290Z,11.6
2022-08-03T06:29:00.361Z,11.6
2022-08-03T06:30:00.271Z,11.6
2022-08-03T06:31:02.037Z,11.6
2022-08-03T06:32:00.279Z,11.6
2022-08-03T06:33:00.277Z,6.6
2022-08-03T06:34:32.839Z,6.6
2022-08-03T06:35:00.255Z,6.6
2022-08-03T06:36:00.255Z,6.6
2022-08-03T06:37:02.292Z,6.6
2022-08-03T06:38:00.348Z,6.2
2022-08-03T06:39:00.968Z,6.2
2022-08-03T06:40:00.273Z,6.2
2022-08-03T06:41:00.254Z,6.2
2022-08-03T06:42:00.264Z,6.2
2022-08-03T06:43:01.950Z,9.5
2022-08-03T06:44:03.670Z,9.5
2022-08-03T06:45:00.209Z,9.5
2022-08-03T06:46:00.267Z,9.5
2022-08-03T06:47:00.272Z,9.5
2022-08-03T06:48:06.427Z,8.4
2022-08-03T06:49:00.383Z,8.4
2022-08-03T06:50:16.658Z,8.4
2022-08-03T06:51:00.231Z,8.4
2022-08-03T06:52:04.568Z,8.4
2022-08-03T06:53:01.461Z,6.5
2022-08-03T06:54:00.282Z,6.5
2022-08-03T06:55:00.247Z,6.5
2022-08-03T06:56:00.377Z,6.5
2022-08-03T06:57:00.235Z,6.5
2022-08-03T06:58:03.505Z,6.7
2022-08-03T06:59:00.238Z,6.7
2022-08-03T07:00:08.497Z,6.7
2022-08-03T07:01:00.348Z,6.7
2022-08-03T07:02:00.274Z,6.7
2022-08-03T07:03:00.235Z,7.1
2022-08-03T07:04:00.287Z,7.1
2022-08-03T07:05:00.254Z,7.1
2022-08-03T07:06:00.263Z,7.1
2022-08-03T07:07:00.577Z,7.1
2022-08-03T07:08:00.284Z,5.7
2022-08-03T07:09:00.298Z,5.7
2022-08-03T07:10:00.626Z,5.7
2022-08-03T07:11:00.549Z,5.7
2022-08-03T07:12:00.252Z,5.7
2022-08-03T07:13:00.240Z,5.5
2022-08-03T07:14:00.234Z,5.5
2022-08-03T07:15:02.886Z,5.5
2022-08-03T07:16:00.234Z,5.5
2022-08-03T07:17:00.284Z,5.5
2022-08-03T07:18:00.422Z,5.0
2022-08-03T07:19:00.275Z,5.0
2022-08-03T07:20:02.567Z,5.0
2022-08-03T07:21:00.232Z,5.0
2022-08-03T07:22:11.393Z,5.0
2022-08-03T07:23:00.304Z,5.6
2022-08-03T07:24:00.306Z,5.6
2022-08-03T07:25:00.381Z,5.6
2022-08-03T07:26:00.351Z,5.6
2022-08-03T07:27:00.262Z,5.6
2022-08-03T07:28:00.248Z,4.7
2022-08-03T07:29:00.284Z,4.7
2022-08-03T07:30:00.531Z,4.7
2022-08-03T07:31:00.216Z,4.7
2022-08-03T07:32:01.181Z,4.7
2022-08-03T07:33:00.337Z,6.9
2022-08-03T07:34:00.310Z,6.9
2022-08-03T07:35:01.524Z,6.9
2022-08-03T07:36:00.383Z,6.9
2022-08-03T07:37:00.295Z,6.9
2022-08-03T07:38:00.223Z,6.1
2022-08-03T07:39:00.306Z,6.1
2022-08-03T07:40:00.983Z,6.1
2022-08-03T07:41:00.309Z,6.1
2022-08-03T07:42:00.353Z,6.1
2022-08-03T07:43:00.278Z,6.3
2022-08-03T07:44:00.211Z,6.3
2022-08-03T07:45:00.434Z,6.3
2022-08-03T07:46:00.282Z,6.3
2022-08-03T07:47:03.363Z,6.3
2022-08-03T07:48:00.378Z,5.2
2022-08-03T07:49:00.294Z,5.2
2022-08-03T07:50:00.252Z,5.2
2022-08-03T07:51:00.223Z,5.2
2022-08-03T07:52:00.266Z,5.2
2022-08-03T07:53:00.226Z,5.8
2022-08-03T07:54:00.593Z,5.8
2022-08-03T07:55:00.290Z,5.8
2022-08-03T07:56:00.233Z,5.8
2022-08-03T07:57:00.263Z,5.8
2022-08-03T07:58:03.537Z,4.9
2022-08-03T07:59:00.310Z,4.9
2022-08-03T08:00:02.425Z,4.9
2022-08-03T08:01:00.466Z,4.9
2022-08-03T08:02:00.285Z,4.9
2022-08-03T08:03:00.655Z,4.2
2022-08-03T08:04:00.237Z,4.2
2022-08-03T08:05:05.263Z,4.2
2022-08-03T08:06:00.588Z,4.2
2022-08-03T08:07:00.263Z,4.2
2022-08-03T08:08:00.958Z,5.6
2022-08-03T08:09:00.288Z,5.6
2022-08-03T08:10:00.343Z,5.6
2022-08-03T08:11:00.218Z,5.6
2022-08-03T08:12:00.273Z,5.6
2022-08-03T08:13:00.821Z,4.6
2022-08-03T08:14:00.312Z,4.6
2022-08-03T08:15:00.460Z,4.6
2022-08-03T08:16:00.264Z,4.6
2022-08-03T08:17:03.342Z,4.6
2022-08-03T08:18:00.467Z,5.3
2022-08-03T08:19:00.231Z,5.3
2022-08-03T08:20:00.243Z,5.3
2022-08-03T08:21:00.256Z,5.3
2022-08-03T08:22:02.826Z,5.3
2022-08-03T08:23:02.837Z,4.7
2022-08-03T08:24:00.225Z,4.7
2022-08-03T08:25:01.308Z,4.7
2022-08-03T08:26:00.376Z,4.7
2022-08-03T08:27:00.218Z,4.7
2022-08-03T08:28:30.527Z,5.4
2022-08-03T08:29:00.291Z,5.4
2022-08-03T08:30:10.387Z,5.4
2022-08-03T08:31:00.573Z,5.4
2022-08-03T08:32:00.247Z,5.4
2022-08-03T08:33:00.324Z,4.7
2022-08-03T08:34:04.644Z,4.7
2022-08-03T08:35:00.229Z,4.7
2022-08-03T08:36:00.470Z,4.7
2022-08-03T08:37:00.287Z,4.7
2022-08-03T08:38:00.377Z,4.4
2022-08-03T08:39:00.475Z,4.4
2022-08-03T08:40:00.661Z,4.4
2022-08-03T08:41:00.370Z,4.4
2022-08-03T08:42:00.307Z,4.4
2022-08-03T08:43:01.244Z,4.5
2022-08-03T08:44:01.000Z,4.5
2022-08-03T08:45:00.319Z,4.5
2022-08-03T08:46:01.011Z,4.5
2022-08-03T08:47:02.599Z,4.5
2022-08-03T08:48:05.440Z,4.8
2022-08-03T08:49:00.633Z,4.8
2022-08-03T08:50:09.850Z,4.8
2022-08-03T08:51:01.592Z,4.8
2022-08-03T08:52:02.628Z,4.8
2022-08-03T08:53:02.423Z,4.4
2022-08-03T08:54:01.933Z,4.4
2022-08-03T08:55:04.161Z,4.4
2022-08-03T08:56:01.620Z,4.4
2022-08-03T08:57:02.523Z,4.4
2022-08-03T08:58:04.473Z,4.4
2022-08-03T08:59:00.771Z,4.4
2022-08-03T09:00:01.151Z,4.4
2022-08-03T09:01:00.366Z,4.4
2022-08-03T09:02:00.422Z,4.4
2022-08-03T09:03:00.657Z,4.3
2022-08-03T09:04:01.368Z,4.3
2022-08-03T09:05:05.339Z,4.3
2022-08-03T09:06:02.770Z,4.3
2022-08-03T09:07:19.255Z,4.3
2022-08-03T09:08:00.382Z,4.2
2022-08-03T09:09:00.285Z,4.2
2022-08-03T09:10:11.182Z,4.2
2022-08-03T09:11:00.391Z,4.2
2022-08-03T09:12:14.614Z,4.2
2022-08-03T09:13:00.654Z,4.6
2022-08-03T09:14:00.251Z,4.6
2022-08-03T09:15:20.139Z,4.6
2022-08-03T09:16:13.456Z,4.6
2022-08-03T09:17:02.075Z,4.6
2022-08-03T09:18:02.667Z,4.4
2022-08-03T09:19:11.404Z,4.4
2022-08-03T09:20:05.853Z,4.4
2022-08-03T09:21:30.035Z,4.4
2022-08-03T09:22:12.497Z,4.4
2022-08-03T09:23:17.859Z,4.0
2022-08-03T09:24:04.266Z,4.0
2022-08-03T09:25:23.400Z,4.0
2022-08-03T09:26:00.409Z,4.0
2022-08-03T09:27:00.580Z,4.0
2022-08-03T09:28:12.020Z,4.7
2022-08-03T09:29:09.337Z,4.7
2022-08-03T09:30:00.319Z,4.7
2022-08-03T09:31:00.285Z,4.7
2022-08-03T09:32:02.950Z,4.7
2022-08-03T09:33:01.724Z,4.2
2022-08-03T09:34:05.155Z,4.2
2022-08-03T09:35:03.137Z,4.2
2022-08-03T09:36:00.248Z,4.2
2022-08-03T09:37:00.315Z,4.2
2022-08-03T09:38:12.525Z,4.5
2022-08-03T09:39:02.272Z,4.5
2022-08-03T09:40:00.303Z,4.5
2022-08-03T09:41:00.910Z,4.5
2022-08-03T09:42:06.167Z,4.5
2022-08-03T09:43:00.277Z,4.0
2022-08-03T09:44:00.252Z,4.0
2022-08-03T09:45:00.293Z,4.0
2022-08-03T09:46:03.051Z,4.0
2022-08-03T09:47:00.277Z,4.0
2022-08-03T09:48:20.148Z,4.4
2022-08-03T09:49:11.718Z,4.4
2022-08-03T09:50:04.197Z,4.4
2022-08-03T09:51:13.398Z,4.4
2022-08-03T09:52:31.466Z,4.4
2022-08-03T09:53:01.218Z,4.5
2022-08-03T09:54:00.582Z,4.5
2022-08-03T09:55:06.677Z,4.5
2022-08-03T09:56:34.378Z,4.5
2022-08-03T09:57:01.231Z,4.5
2022-08-03T09:58:05.199Z,4.3
2022-08-03T09:59:00.301Z,4.3
2022-08-03T10:00:09.517Z,4.3
2022-08-03T10:01:02.662Z,4.3
2022-08-03T10:02:00.461Z,4.3
2022-08-03T10:03:04.459Z,4.4
2022-08-03T10:04:03.352Z,4.4
2022-08-03T10:05:00.362Z,4.4
2022-08-03T10:06:15.034Z,4.4
2022-08-03T10:07:05.465Z,4.4
2022-08-03T10:08:13.939Z,4.8
2022-08-03T10:09:08.586Z,4.8
2022-08-03T10:10:29.926Z,4.8
2022-08-03T10:11:00.252Z,4.8
2022-08-03T10:12:08.651Z,4.8
2022-08-03T10:13:00.403Z,6.8
2022-08-03T10:14:03.825Z,6.8
2022-08-03T10:15:00.302Z,6.8
2022-08-03T10:16:22.022Z,6.8
2022-08-03T10:17:00.325Z,6.8
2022-08-03T10:18:00.243Z,4.7
2022-08-03T10:19:01.401Z,4.7
2022-08-03T10:20:00.393Z,4.7
2022-08-03T10:21:03.747Z,4.7
2022-08-03T10:22:03.714Z,4.7
2022-08-03T10:23:01.755Z,4.1
2022-08-03T10:24:02.881Z,4.1
2022-08-03T10:25:07.828Z,4.1
2022-08-03T10:26:03.681Z,4.1
2022-08-03T10:27:01.892Z,4.1
2022-08-03T10:28:01.932Z,5.2
2022-08-03T10:29:03.960Z,5.2
2022-08-03T10:30:04.066Z,5.2
2022-08-03T10:31:01.616Z,5.2
2022-08-03T10:32:05.697Z,5.2
2022-08-03T10:33:04.986Z,4.8
2022-08-03T10:34:01.079Z,4.8
2022-08-03T10:35:19.872Z,4.8
2022-08-03T10:36:01.348Z,4.8
2022-08-03T10:37:06.260Z,4.8
2022-08-03T10:38:07.065Z,6.9
2022-08-03T10:39:01.786Z,6.9
2022-08-03T10:40:01.702Z,6.9
2022-08-03T10:41:01.023Z,6.9
2022-08-03T10:42:02.855Z,6.9
2022-08-03T10:43:06.837Z,4.1
2022-08-03T10:44:06.955Z,4.1
2022-08-03T10:45:04.924Z,4.1
2022-08-03T10:46:02.146Z,4.1
2022-08-03T10:47:00.416Z,4.1
2022-08-03T10:48:00.862Z,4.5
2022-08-03T10:49:01.086Z,4.5
2022-08-03T10:50:00.949Z,4.5
2022-08-03T10:51:00.722Z,4.5
2022-08-03T10:52:00.701Z,4.5
2022-08-03T10:53:03.949Z,4.1
2022-08-03T10:54:01.829Z,4.1
2022-08-03T10:55:00.348Z,4.1
2022-08-03T10:56:00.295Z,4.1
2022-08-03T10:57:01.091Z,4.1
2022-08-03T10:58:00.412Z,4.7
2022-08-03T10:59:00.238Z,4.7
2022-08-03T11:00:00.418Z,4.7
2022-08-03T11:01:00.335Z,4.7
2022-08-03T11:02:01.321Z,4.7
2022-08-03T11:03:07.019Z,4.1
2022-08-03T11:04:00.206Z,4.1
2022-08-03T11:05:20.133Z,4.1
2022-08-03T11:06:15.253Z,4.1
2022-08-03T11:07:19.368Z,4.1
2022-08-03T11:08:18.344Z,4.1
2022-08-03T11:09:10.173Z,4.1
2022-08-03T11:10:00.329Z,4.1
2022-08-03T11:11:11.897Z,4.1
2022-08-03T11:12:20.128Z,4.1
2022-08-03T11:13:09.808Z,4.0
2022-08-03T11:14:03.977Z,4.0
2022-08-03T11:15:05.421Z,4.0
2022-08-03T11:16:05.857Z,4.0
2022-08-03T11:17:08.030Z,4.0
2022-08-03T11:18:08.157Z,5.4
2022-08-03T11:19:04.864Z,5.4
2022-08-03T11:20:00.410Z,5.4
2022-08-03T11:21:00.398Z,5.4
2022-08-03T11:22:00.336Z,5.4
2022-08-03T11:23:00.355Z,4.3
2022-08-03T11:24:04.541Z,4.3
2022-08-03T11:25:00.454Z,4.3
2022-08-03T11:26:09.856Z,4.3
2022-08-03T11:27:13.421Z,4.3
2022-08-03T11:28:20.130Z,4.1
2022-08-03T11:29:20.128Z,4.1
2022-08-03T11:30:07.807Z,4.1
2022-08-03T11:31:46.718Z,4.1
2022-08-03T11:32:00.254Z,4.1
2022-08-03T11:33:00.369Z,4.0
2022-08-03T11:34:09.220Z,4.0
2022-08-03T11:35:06.862Z,4.0
2022-08-03T11:36:01.061Z,4.0
2022-08-03T11:37:20.640Z,4.0
2022-08-03T11:38:04.963Z,4.1
2022-08-03T11:39:11.971Z,4.1
2022-08-03T11:40:02.720Z,4.1
2022-08-03T11:41:00.388Z,4.1
2022-08-03T11:42:20.162Z,4.1
2022-08-03T11:43:01.467Z,5.5
2022-08-03T11:44:00.352Z,5.5
2022-08-03T11:45:00.274Z,5.5
2022-08-03T11:46:06.436Z,5.5
2022-08-03T11:47:00.424Z,5.5
2022-08-03T11:48:14.644Z,5.6
2022-08-03T11:49:07.808Z,5.6
2022-08-03T11:50:00.435Z,5.6
2022-08-03T11:51:01.142Z,5.6
2022-08-03T11:52:00.310Z,5.6
2022-08-03T11:53:00.249Z,4.3
2022-08-03T11:54:03.596Z,4.3
2022-08-03T11:55:00.797Z,4.3
2022-08-03T11:56:01.730Z,4.3
2022-08-03T11:57:00.228Z,4.3
2022-08-03T11:59:13.239Z,4.2
2022-08-03T11:59:20.710Z,4.2
2022-08-03T12:00:00.524Z,4.2
2022-08-03T12:01:05.255Z,4.2
2022-08-03T12:02:11.179Z,4.2
2022-08-03T12:03:05.033Z,3.8
2022-08-03T12:04:04.749Z,3.8
2022-08-03T12:05:00.245Z,3.8
2022-08-03T12:06:00.426Z,3.8
2022-08-03T12:07:00.384Z,3.8
2022-08-03T12:08:03.579Z,3.8
2022-08-03T12:09:00.245Z,3.8
2022-08-03T12:10:09.325Z,3.8
2022-08-03T12:11:02.348Z,3.8
2022-08-03T12:12:01.371Z,3.8
2022-08-03T12:13:03.071Z,3.8
2022-08-03T12:14:45.596Z,3.8
2022-08-03T12:15:01.212Z,3.8
2022-08-03T12:16:01.156Z,3.8
2022-08-03T12:17:00.234Z,3.8
2022-08-03T12:18:02.435Z,4.2
2022-08-03T12:19:02.417Z,4.2
2022-08-03T12:20:00.513Z,4.2
2022-08-03T12:21:08.886Z,4.2
2022-08-03T12:22:00.302Z,4.2
2022-08-03T12:23:03.369Z,4.0
2022-08-03T12:24:04.453Z,4.0
2022-08-03T12:25:00.542Z,4.0
2022-08-03T12:26:02.344Z,4.0
2022-08-03T12:27:00.355Z,4.0
2022-08-03T12:28:37.043Z,4.0
2022-08-03T12:29:00.224Z,4.0
2022-08-03T12:30:01.273Z,4.0
2022-08-03T12:31:05.744Z,4.0
2022-08-03T12:32:00.415Z,4.0
2022-08-03T12:33:14.601Z,3.9
2022-08-03T12:34:01.977Z,3.9
2022-08-03T12:35:00.585Z,3.9
2022-08-03T12:36:03.983Z,3.9
2022-08-03T12:37:04.021Z,3.9
2022-08-03T12:38:00.386Z,3.9
2022-08-03T12:39:03.801Z,3.9
2022-08-03T12:40:08.000Z,3.9
2022-08-03T12:41:06.026Z,3.9
2022-08-03T12:42:00.350Z,3.9
2022-08-03T12:43:00.438Z,3.9
2022-08-03T12:44:01.060Z,4.6
2022-08-03T12:45:20.134Z,4.6
2022-08-03T12:46:10.842Z,4.6
2022-08-03T12:47:02.099Z,4.6
2022-08-03T12:48:01.316Z,4.6
2022-08-03T12:49:02.740Z,4.6
2022-08-03T12:50:00.265Z,4.6
2022-08-03T12:51:10.382Z,4.6
2022-08-03T12:52:04.100Z,4.6
2022-08-03T12:53:02.543Z,3.9
2022-08-03T12:54:02.079Z,3.9
2022-08-03T12:55:00.267Z,3.9
2022-08-03T12:56:05.064Z,3.9
2022-08-03T12:57:01.251Z,3.9
2022-08-03T12:58:03.548Z,3.9
2022-08-03T12:59:20.135Z,3.9
2022-08-03T13:00:19.902Z,3.9
2022-08-03T13:01:05.066Z,3.9
2022-08-03T13:02:02.173Z,3.9
2022-08-03T13:03:26.553Z,3.9
2022-08-03T13:04:00.276Z,3.9
2022-08-03T13:05:08.857Z,3.9
2022-08-03T13:06:00.277Z,3.9
2022-08-03T13:07:05.644Z,3.9
2022-08-03T13:08:00.322Z,3.9
2022-08-03T13:09:02.337Z,4.0
2022-08-03T13:10:03.784Z,4.0
2022-08-03T13:11:19.144Z,4.0
2022-08-03T13:12:09.752Z,4.0
2022-08-03T13:13:00.295Z,4.0
2022-08-03T13:14:00.279Z,3.8
2022-08-03T13:15:00.557Z,3.8
2022-08-03T13:16:00.269Z,3.8
2022-08-03T13:17:00.347Z,3.8
2022-08-03T13:18:00.256Z,3.8
2022-08-03T13:19:00.246Z,4.0
2022-08-03T13:20:00.282Z,4.0
2022-08-03T13:21:00.410Z,4.0
2022-08-03T13:22:03.574Z,4.0
2022-08-03T13:23:01.019Z,4.0
2022-08-03T13:24:00.247Z,4.5
2022-08-03T13:25:01.256Z,4.5
2022-08-03T13:26:00.269Z,4.5
2022-08-03T13:27:00.487Z,4.5
2022-08-03T13:28:03.619Z,4.5
2022-08-03T13:29:00.254Z,3.9
2022-08-03T13:30:00.275Z,3.9
2022-08-03T13:31:00.374Z,3.9
2022-08-03T13:32:01.769Z,3.9
2022-08-03T13:33:00.251Z,3.9
2022-08-03T13:34:00.262Z,3.8
2022-08-03T13:35:01.138Z,3.8
2022-08-03T13:36:00.301Z,3.8
2022-08-03T13:37:09.065Z,3.8
2022-08-03T13:38:00.248Z,3.8
2022-08-03T13:39:00.339Z,5.0
2022-08-03T13:40:02.423Z,5.0